sensor_id;sensor_type;location;lat;lon;timestamp;pressure;altitude;pressure_sealevel;temperature;humidity
19208;BME280;9737;59.466;18.036;2023-05-24T00:00:58;97438.41;;;6.22;nan
19208;BME280;9737;59.466;18.036;2023-05-24T00:03:28;97446.31;;;6.22;nan
19208;BME280;9737;59.466;18.036;2023-05-24T00:05:56;97440.53;;;6.18;nan
19208;BME280;9737;59.466;18.036;2023-05-24T00:08:26;97413.13;;;6.11;nan
19208;BME280;9737;59.466;18.036;2023-05-24T00:10:53;97390.16;;;6.04;nan
19208;BME280;9737;59.466;18.036;2023-05-24T00:13:21;97354.19;;;5.95;nan
19208;BME280;9737;59.466;18.036;2023-05-24T00:15:50;97337.03;;;5.90;nan
19208;BME280;9737;59.466;18.036;2023-05-24T00:18:17;97326.75;;;5.87;nan
19208;BME280;9737;59.466;18.036;2023-05-24T00:20:45;97322.63;;;5.85;nan
19208;BME280;9737;59.466;18.036;2023-05-24T00:23:13;97296.06;;;5.78;nan
19208;BME280;9737;59.466;18.036;2023-05-24T00:25:43;97277.25;;;5.73;nan
19208;BME280;9737;59.466;18.036;2023-05-24T00:28:11;97248.22;;;5.65;nan
19208;BME280;9737;59.466;18.036;2023-05-24T00:30:39;97260.09;;;5.69;nan
19208;BME280;9737;59.466;18.036;2023-05-24T00:33:07;97270.31;;;5.72;nan
19208;BME280;9737;59.466;18.036;2023-05-24T00:35:35;97298.72;;;5.78;nan
19208;BME280;9737;59.466;18.036;2023-05-24T00:38:03;97320.97;;;5.84;nan
19208;BME280;9737;59.466;18.036;2023-05-24T00:40:30;97325.94;;;5.87;nan
19208;BME280;9737;59.466;18.036;2023-05-24T00:43:00;97340.09;;;5.86;nan
19208;BME280;9737;59.466;18.036;2023-05-24T00:45:28;97334.50;;;5.89;nan
19208;BME280;9737;59.466;18.036;2023-05-24T00:47:59;97331.38;;;5.85;nan
19208;BME280;9737;59.466;18.036;2023-05-24T00:50:27;97284.16;;;5.74;nan
19208;BME280;9737;59.466;18.036;2023-05-24T00:52:57;97246.72;;;5.63;nan
19208;BME280;9737;59.466;18.036;2023-05-24T00:55:27;97216.88;;;5.54;nan
19208;BME280;9737;59.466;18.036;2023-05-24T00:57:55;97180.09;;;5.44;nan
19208;BME280;9737;59.466;18.036;2023-05-24T01:00:25;97155.38;;;5.37;nan
19208;BME280;9737;59.466;18.036;2023-05-24T01:02:54;97131.47;;;5.31;nan
19208;BME280;9737;59.466;18.036;2023-05-24T01:05:22;97106.75;;;5.23;nan
19208;BME280;9737;59.466;18.036;2023-05-24T01:07:58;97111.69;;;5.26;nan
19208;BME280;9737;59.466;18.036;2023-05-24T01:10:34;97139.38;;;5.31;nan
19208;BME280;9737;59.466;18.036;2023-05-24T01:13:15;97129.16;;;5.27;nan
19208;BME280;9737;59.466;18.036;2023-05-24T01:15:54;97105.28;;;5.21;nan
19208;BME280;9737;59.466;18.036;2023-05-24T01:18:30;97073.44;;;5.14;nan
19208;BME280;9737;59.466;18.036;2023-05-24T01:21:15;97065.22;;;5.09;nan
19208;BME280;9737;59.466;18.036;2023-05-24T01:23:48;97036.88;;;5.03;nan
19208;BME280;9737;59.466;18.036;2023-05-24T01:26:31;97021.72;;;4.97;nan
19208;BME280;9737;59.466;18.036;2023-05-24T01:29:05;97005.59;;;4.92;nan
19208;BME280;9737;59.466;18.036;2023-05-24T01:31:35;96996.00;;;4.91;nan
19208;BME280;9737;59.466;18.036;2023-05-24T01:34:03;96985.81;;;4.88;nan
19208;BME280;9737;59.466;18.036;2023-05-24T01:36:31;96971.97;;;4.86;nan
19208;BME280;9737;59.466;18.036;2023-05-24T01:38:59;96971.97;;;4.86;nan
19208;BME280;9737;59.466;18.036;2023-05-24T01:41:35;96971.63;;;4.81;nan
19208;BME280;9737;59.466;18.036;2023-05-24T01:44:13;96958.47;;;4.81;nan
19208;BME280;9737;59.466;18.036;2023-05-24T01:46:46;96953.53;;;4.78;nan
19208;BME280;9737;59.466;18.036;2023-05-24T01:49:26;96938.06;;;4.75;nan
19208;BME280;9737;59.466;18.036;2023-05-24T01:51:59;96931.31;;;4.72;nan
19208;BME280;9737;59.466;18.036;2023-05-24T01:54:32;96932.16;;;4.73;nan
19208;BME280;9737;59.466;18.036;2023-05-24T01:57:03;96939.72;;;4.76;nan
19208;BME280;9737;59.466;18.036;2023-05-24T01:59:33;96971.81;;;4.79;nan
19208;BME280;9737;59.466;18.036;2023-05-24T02:02:02;97006.53;;;4.91;nan
19208;BME280;9737;59.466;18.036;2023-05-24T02:04:30;97021.88;;;4.95;nan
19208;BME280;9737;59.466;18.036;2023-05-24T02:06:58;97022.72;;;4.96;nan
19208;BME280;9737;59.466;18.036;2023-05-24T02:09:26;97001.97;;;4.93;nan
19208;BME280;9737;59.466;18.036;2023-05-24T02:11:54;97001.44;;;4.89;nan
19208;BME280;9737;59.466;18.036;2023-05-24T02:14:22;96995.34;;;4.89;nan
19208;BME280;9737;59.466;18.036;2023-05-24T02:16:51;96993.69;;;4.88;nan
19208;BME280;9737;59.466;18.036;2023-05-24T02:19:24;96987.78;;;4.86;nan
19208;BME280;9737;59.466;18.036;2023-05-24T02:21:52;96980.88;;;4.85;nan
19208;BME280;9737;59.466;18.036;2023-05-24T02:24:20;96981.69;;;4.85;nan
19208;BME280;9737;59.466;18.036;2023-05-24T02:26:48;97021.06;;;4.95;nan
19208;BME280;9737;59.466;18.036;2023-05-24T02:29:16;97027.81;;;4.97;nan
19208;BME280;9737;59.466;18.036;2023-05-24T02:34:12;97051.84;;;5.03;nan
19208;BME280;9737;59.466;18.036;2023-05-24T02:36:40;97070.47;;;5.09;nan
19208;BME280;9737;59.466;18.036;2023-05-24T02:39:09;97095.50;;;5.13;nan
19208;BME280;9737;59.466;18.036;2023-05-24T02:41:37;97113.31;;;5.19;nan
19208;BME280;9737;59.466;18.036;2023-05-24T02:44:05;97126.19;;;5.22;nan
19208;BME280;9737;59.466;18.036;2023-05-24T02:46:33;97141.66;;;5.25;nan
19208;BME280;9737;59.466;18.036;2023-05-24T02:49:01;97149.25;;;5.28;nan
19208;BME280;9737;59.466;18.036;2023-05-24T02:51:30;97167.38;;;5.32;nan
19208;BME280;9737;59.466;18.036;2023-05-24T02:53:58;97171.34;;;5.36;nan
19208;BME280;9737;59.466;18.036;2023-05-24T02:56:26;97184.19;;;5.39;nan
19208;BME280;9737;59.466;18.036;2023-05-24T02:58:55;97211.56;;;5.46;nan
19208;BME280;9737;59.466;18.036;2023-05-24T03:01:22;97245.88;;;5.54;nan
19208;BME280;9737;59.466;18.036;2023-05-24T03:03:50;97271.59;;;5.60;nan
19208;BME280;9737;59.466;18.036;2023-05-24T03:06:19;97281.81;;;5.63;nan
19208;BME280;9737;59.466;18.036;2023-05-24T03:08:48;97302.28;;;5.69;nan
19208;BME280;9737;59.466;18.036;2023-05-24T03:11:16;97311.66;;;5.64;nan
19208;BME280;9737;59.466;18.036;2023-05-24T03:13:47;97356.25;;;5.83;nan
19208;BME280;9737;59.466;18.036;2023-05-24T03:16:15;97371.75;;;5.86;nan
19208;BME280;9737;59.466;18.036;2023-05-24T03:18:43;97381.84;;;5.90;nan
19208;BME280;9737;59.466;18.036;2023-05-24T03:21:11;97398.03;;;5.96;nan
19208;BME280;9737;59.466;18.036;2023-05-24T03:23:39;97417.16;;;5.98;nan
19208;BME280;9737;59.466;18.036;2023-05-24T03:26:08;97428.22;;;6.01;nan
19208;BME280;9737;59.466;18.036;2023-05-24T03:28:36;97443.75;;;6.04;nan
19208;BME280;9737;59.466;18.036;2023-05-24T03:31:04;97474.63;;;6.12;nan
19208;BME280;9737;59.466;18.036;2023-05-24T03:33:32;97495.78;;;6.20;nan
19208;BME280;9737;59.466;18.036;2023-05-24T03:36:00;97532.94;;;6.27;nan
19208;BME280;9737;59.466;18.036;2023-05-24T03:38:29;97558.69;;;6.33;nan
19208;BME280;9737;59.466;18.036;2023-05-24T03:40:59;97599.03;;;6.43;nan
19208;BME280;9737;59.466;18.036;2023-05-24T03:43:28;97642.66;;;6.55;nan
19208;BME280;9737;59.466;18.036;2023-05-24T03:45:56;97663.94;;;6.53;nan
19208;BME280;9737;59.466;18.036;2023-05-24T03:48:25;97725.84;;;6.77;nan
19208;BME280;9737;59.466;18.036;2023-05-24T03:50:52;97772.81;;;6.91;nan
19208;BME280;9737;59.466;18.036;2023-05-24T03:53:21;97839.03;;;7.07;nan
19208;BME280;9737;59.466;18.036;2023-05-24T03:55:49;97896.50;;;7.23;nan
19208;BME280;9737;59.466;18.036;2023-05-24T03:58:17;97966.84;;;7.42;nan
19208;BME280;9737;59.466;18.036;2023-05-24T04:00:46;98041.44;;;7.63;nan
19208;BME280;9737;59.466;18.036;2023-05-24T04:03:14;98192.63;;;8.04;nan
19208;BME280;9737;59.466;18.036;2023-05-24T04:05:42;98330.50;;;8.38;nan
19208;BME280;9737;59.466;18.036;2023-05-24T04:08:10;98469.19;;;8.74;nan
19208;BME280;9737;59.466;18.036;2023-05-24T04:10:40;98600.84;;;9.11;nan
19208;BME280;9737;59.466;18.036;2023-05-24T04:13:08;98748.50;;;9.47;nan
19208;BME280;9737;59.466;18.036;2023-05-24T04:15:36;98927.03;;;9.96;nan
19208;BME280;9737;59.466;18.036;2023-05-24T04:18:06;99111.22;;;10.43;nan
19208;BME280;9737;59.466;18.036;2023-05-24T04:20:34;99233.88;;;10.77;nan
19208;BME280;9737;59.466;18.036;2023-05-24T04:23:02;99357.72;;;11.09;nan
19208;BME280;9737;59.466;18.036;2023-05-24T04:25:30;99459.13;;;11.35;nan
19208;BME280;9737;59.466;18.036;2023-05-24T04:28:02;99578.78;;;11.65;nan
19208;BME280;9737;59.466;18.036;2023-05-24T04:30:30;99670.81;;;11.89;nan
19208;BME280;9737;59.466;18.036;2023-05-24T04:32:58;99747.94;;;12.09;nan
19208;BME280;9737;59.466;18.036;2023-05-24T04:35:27;99845.34;;;12.33;nan
19208;BME280;9737;59.466;18.036;2023-05-24T04:37:56;99946.19;;;12.58;nan
19208;BME280;9737;59.466;18.036;2023-05-24T04:40:25;100080.38;;;12.89;nan
19208;BME280;9737;59.466;18.036;2023-05-24T04:42:53;100177.84;;;13.14;nan
19208;BME280;9737;59.466;18.036;2023-05-24T04:45:21;100235.25;;;13.29;nan
19208;BME280;9737;59.466;18.036;2023-05-24T04:47:48;100308.44;;;13.48;nan
19208;BME280;9737;59.466;18.036;2023-05-24T04:50:17;100364.22;;;13.62;nan
19208;BME280;9737;59.466;18.036;2023-05-24T04:52:46;100475.75;;;13.90;nan
19208;BME280;9737;59.466;18.036;2023-05-24T04:55:14;100576.34;;;14.12;nan
19208;BME280;9737;59.466;18.036;2023-05-24T04:57:42;100625.28;;;14.24;nan
19208;BME280;9737;59.466;18.036;2023-05-24T05:00:11;100682.81;;;14.39;nan
19208;BME280;9737;59.466;18.036;2023-05-24T05:02:39;100785.84;;;14.66;nan
19208;BME280;9737;59.466;18.036;2023-05-24T05:05:07;100879.47;;;14.88;nan
19208;BME280;9737;59.466;18.036;2023-05-24T05:07:35;100985.25;;;15.14;nan
19208;BME280;9737;59.466;18.036;2023-05-24T05:10:06;101084.19;;;15.38;nan
19208;BME280;9737;59.466;18.036;2023-05-24T05:12:34;101164.75;;;15.58;nan
19208;BME280;9737;59.466;18.036;2023-05-24T05:15:03;101186.97;;;15.60;nan
19208;BME280;9737;59.466;18.036;2023-05-24T05:17:31;101252.63;;;15.76;nan
19208;BME280;9737;59.466;18.036;2023-05-24T05:19:59;101348.16;;;16.00;nan
19208;BME280;9737;59.466;18.036;2023-05-24T05:22:27;101423.63;;;16.18;nan
19208;BME280;9737;59.466;18.036;2023-05-24T05:24:56;101520.81;;;16.43;nan
19208;BME280;9737;59.466;18.036;2023-05-24T05:27:26;101656.09;;;16.76;nan
19208;BME280;9737;59.466;18.036;2023-05-24T05:29:54;101749.41;;;16.96;nan
19208;BME280;9737;59.466;18.036;2023-05-24T05:32:22;101839.09;;;17.18;nan
19208;BME280;9737;59.466;18.036;2023-05-24T05:34:49;101928.72;;;17.41;nan
19208;BME280;9737;59.466;18.036;2023-05-24T05:37:17;102022.00;;;17.62;nan
19208;BME280;9737;59.466;18.036;2023-05-24T05:39:45;102092.53;;;17.79;nan
19208;BME280;9737;59.466;18.036;2023-05-24T05:42:13;102151.53;;;17.93;nan
19208;BME280;9737;59.466;18.036;2023-05-24T05:44:43;102221.31;;;18.07;nan
19208;BME280;9737;59.466;18.036;2023-05-24T05:47:10;102272.28;;;18.21;nan
19208;BME280;9737;59.466;18.036;2023-05-24T05:49:39;102294.34;;;18.26;nan
19208;BME280;9737;59.466;18.036;2023-05-24T05:52:07;102241.75;;;18.10;nan
19208;BME280;9737;59.466;18.036;2023-05-24T05:54:35;102296.63;;;18.20;nan
19208;BME280;9737;59.466;18.036;2023-05-24T05:57:03;102311.47;;;18.25;nan
19208;BME280;9737;59.466;18.036;2023-05-24T05:59:33;102426.06;;;18.53;nan
19208;BME280;9737;59.466;18.036;2023-05-24T06:02:03;102459.91;;;18.57;nan
19208;BME280;9737;59.466;18.036;2023-05-24T06:04:32;102577.94;;;18.89;nan
19208;BME280;9737;59.466;18.036;2023-05-24T06:07:00;102676.75;;;19.14;nan
19208;BME280;9737;59.466;18.036;2023-05-24T06:09:29;102669.88;;;19.10;nan
19208;BME280;9737;59.466;18.036;2023-05-24T06:11:57;102726.69;;;19.19;nan
19208;BME280;9737;59.466;18.036;2023-05-24T06:14:25;102772.50;;;19.32;nan
19208;BME280;9737;59.466;18.036;2023-05-24T06:16:53;102850.38;;;19.49;nan
19208;BME280;9737;59.466;18.036;2023-05-24T06:19:24;102911.34;;;19.65;nan
19208;BME280;9737;59.466;18.036;2023-05-24T06:21:52;102937.94;;;19.71;nan
19208;BME280;9737;59.466;18.036;2023-05-24T06:24:20;102917.63;;;19.65;nan
19208;BME280;9737;59.466;18.036;2023-05-24T06:26:49;102986.59;;;19.82;nan
19208;BME280;9737;59.466;18.036;2023-05-24T06:29:17;103038.84;;;19.94;nan
19208;BME280;9737;59.466;18.036;2023-05-24T06:31:47;103034.78;;;19.88;nan
19208;BME280;9737;59.466;18.036;2023-05-24T06:34:17;103065.69;;;19.97;nan
19208;BME280;9737;59.466;18.036;2023-05-24T06:36:48;103069.13;;;19.99;nan
19208;BME280;9737;59.466;18.036;2023-05-24T06:39:17;103052.28;;;19.95;nan
19208;BME280;9737;59.466;18.036;2023-05-24T06:41:45;103129.41;;;20.12;nan
19208;BME280;9737;59.466;18.036;2023-05-24T06:44:16;103318.19;;;20.56;nan
19208;BME280;9737;59.466;18.036;2023-05-24T06:46:44;103464.66;;;20.88;nan
19208;BME280;9737;59.466;18.036;2023-05-24T06:49:13;103431.78;;;20.82;nan
19208;BME280;9737;59.466;18.036;2023-05-24T06:51:41;103509.03;;;20.98;nan
19208;BME280;9737;59.466;18.036;2023-05-24T06:54:11;103606.63;;;21.22;nan
19208;BME280;9737;59.466;18.036;2023-05-24T06:56:39;103695.38;;;21.44;nan
19208;BME280;9737;59.466;18.036;2023-05-24T06:59:07;103623.66;;;21.24;nan
19208;BME280;9737;59.466;18.036;2023-05-24T07:01:35;103621.91;;;21.23;nan
19208;BME280;9737;59.466;18.036;2023-05-24T07:04:05;103624.50;;;21.25;nan
19208;BME280;9737;59.466;18.036;2023-05-24T07:06:33;103595.25;;;21.17;nan
19208;BME280;9737;59.466;18.036;2023-05-24T07:09:01;103584.63;;;21.14;nan
19208;BME280;9737;59.466;18.036;2023-05-24T07:11:31;103598.94;;;21.16;nan
19208;BME280;9737;59.466;18.036;2023-05-24T07:13:59;103608.66;;;21.19;nan
19208;BME280;9737;59.466;18.036;2023-05-24T07:16:27;103584.84;;;21.11;nan
19208;BME280;9737;59.466;18.036;2023-05-24T07:18:55;103586.47;;;21.14;nan
19208;BME280;9737;59.466;18.036;2023-05-24T07:21:23;103556.44;;;21.04;nan
19208;BME280;9737;59.466;18.036;2023-05-24T07:23:51;103597.19;;;21.15;nan
19208;BME280;9737;59.466;18.036;2023-05-24T07:26:19;103702.84;;;21.41;nan
19208;BME280;9737;59.466;18.036;2023-05-24T07:28:48;103712.72;;;21.42;nan
19208;BME280;9737;59.466;18.036;2023-05-24T07:31:17;103790.75;;;21.62;nan
19208;BME280;9737;59.466;18.036;2023-05-24T07:33:45;103860.16;;;21.77;nan
19208;BME280;9737;59.466;18.036;2023-05-24T07:36:13;103949.13;;;21.98;nan
19208;BME280;9737;59.466;18.036;2023-05-24T07:38:41;104128.91;;;22.39;nan
19208;BME280;9737;59.466;18.036;2023-05-24T07:41:12;104283.94;;;22.74;nan
19208;BME280;9737;59.466;18.036;2023-05-24T07:43:40;104393.47;;;23.02;nan
19208;BME280;9737;59.466;18.036;2023-05-24T07:46:09;104478.13;;;23.23;nan
19208;BME280;9737;59.466;18.036;2023-05-24T07:48:37;104496.06;;;23.25;nan
19208;BME280;9737;59.466;18.036;2023-05-24T07:51:05;104526.44;;;23.32;nan
19208;BME280;9737;59.466;18.036;2023-05-24T07:53:33;104532.63;;;23.34;nan
19208;BME280;9737;59.466;18.036;2023-05-24T07:56:03;104621.91;;;23.54;nan
19208;BME280;9737;59.466;18.036;2023-05-24T07:58:31;104645.13;;;23.60;nan
19208;BME280;9737;59.466;18.036;2023-05-24T08:00:59;104737.19;;;23.80;nan
19208;BME280;9737;59.466;18.036;2023-05-24T08:03:29;104808.53;;;23.98;nan
19208;BME280;9737;59.466;18.036;2023-05-24T08:05:56;104797.84;;;23.95;nan
19208;BME280;9737;59.466;18.036;2023-05-24T08:08:24;104794.38;;;23.93;nan
19208;BME280;9737;59.466;18.036;2023-05-24T08:10:52;104752.31;;;23.84;nan
19208;BME280;9737;59.466;18.036;2023-05-24T08:13:20;104771.06;;;23.89;nan
19208;BME280;9737;59.466;18.036;2023-05-24T08:15:48;104875.59;;;24.13;nan
19208;BME280;9737;59.466;18.036;2023-05-24T08:18:16;104922.81;;;24.26;nan
19208;BME280;9737;59.466;18.036;2023-05-24T08:20:45;104955.06;;;24.34;nan
19208;BME280;9737;59.466;18.036;2023-05-24T08:23:13;105000.75;;;24.43;nan
19208;BME280;9737;59.466;18.036;2023-05-24T08:25:41;104927.38;;;24.26;nan
19208;BME280;9737;59.466;18.036;2023-05-24T08:28:09;104944.38;;;24.31;nan
19208;BME280;9737;59.466;18.036;2023-05-24T08:30:37;104875.59;;;24.13;nan
19208;BME280;9737;59.466;18.036;2023-05-24T08:33:05;104871.91;;;24.14;nan
19208;BME280;9737;59.466;18.036;2023-05-24T08:35:33;104956.81;;;24.35;nan
19208;BME280;9737;59.466;18.036;2023-05-24T08:38:04;105023.00;;;24.50;nan
19208;BME280;9737;59.466;18.036;2023-05-24T08:40:32;105110.34;;;24.61;nan
19208;BME280;9737;59.466;18.036;2023-05-24T08:43:00;105183.25;;;24.86;nan
19208;BME280;9737;59.466;18.036;2023-05-24T08:46:18;105613.44;;;25.86;nan
19208;BME280;9737;59.466;18.036;2023-05-24T10:51:42;109440.56;;;34.82;39.62
19208;BME280;9737;59.466;18.036;2023-05-24T10:54:12;109560.41;;;35.11;39.27
19208;BME280;9737;59.466;18.036;2023-05-24T10:56:46;109425.72;;;34.85;39.21
19208;BME280;9737;59.466;18.036;2023-05-24T10:59:31;109610.69;;;35.23;39.04
19208;BME280;9737;59.466;18.036;2023-05-24T11:02:05;109554.63;;;35.17;38.75
19208;BME280;9737;59.466;18.036;2023-05-24T11:04:38;109656.16;;;35.43;38.69
19208;BME280;9737;59.466;18.036;2023-05-24T11:07:12;109945.81;;;36.06;38.35
19208;BME280;9737;59.466;18.036;2023-05-24T11:09:41;110448.34;;;37.11;38.22
19208;BME280;9737;59.466;18.036;2023-05-24T11:12:14;110280.00;;;36.79;37.87
19208;BME280;9737;59.466;18.036;2023-05-24T11:14:49;110314.88;;;36.88;38.10
19208;BME280;9737;59.466;18.036;2023-05-24T11:17:19;110220.97;;;36.71;37.47
19208;BME280;9737;59.466;18.036;2023-05-24T11:19:49;110227.34;;;36.75;37.69
19208;BME280;9737;59.466;18.036;2023-05-24T11:22:21;110338.47;;;37.01;37.55
19208;BME280;9737;59.466;18.036;2023-05-24T11:24:50;110425.66;;;37.23;37.42
19208;BME280;9737;59.466;18.036;2023-05-24T11:27:19;110588.53;;;37.57;37.42
19208;BME280;9737;59.466;18.036;2023-05-24T11:29:47;110593.06;;;37.61;36.72
19208;BME280;9737;59.466;18.036;2023-05-24T11:32:17;110485.28;;;37.41;36.48
19208;BME280;9737;59.466;18.036;2023-05-24T11:34:45;110713.47;;;37.93;36.35
19208;BME280;9737;59.466;18.036;2023-05-24T11:37:14;110774.19;;;38.06;36.42
19208;BME280;9737;59.466;18.036;2023-05-24T11:39:49;110682.06;;;37.89;36.44
19208;BME280;9737;59.466;18.036;2023-05-24T11:42:19;110356.06;;;37.27;35.64
19208;BME280;9737;59.466;18.036;2023-05-24T11:44:48;110090.41;;;36.71;35.95
19208;BME280;9737;59.466;18.036;2023-05-24T11:47:19;110440.44;;;37.50;35.30
19208;BME280;9737;59.466;18.036;2023-05-24T11:49:51;110539.75;;;37.73;35.20
19208;BME280;9737;59.466;18.036;2023-05-24T11:52:19;110489.09;;;37.64;35.03
19208;BME280;9737;59.466;18.036;2023-05-24T11:54:49;110670.28;;;38.06;35.01
19208;BME280;9737;59.466;18.036;2023-05-24T11:57:18;110816.72;;;38.38;34.70
19208;BME280;9737;59.466;18.036;2023-05-24T11:59:50;110979.81;;;38.76;34.66
19208;BME280;9737;59.466;18.036;2023-05-24T12:02:18;110945.56;;;38.71;34.83
19208;BME280;9737;59.466;18.036;2023-05-24T12:04:46;111172.41;;;39.23;34.43
19208;BME280;9737;59.466;18.036;2023-05-24T12:07:15;110892.75;;;38.68;34.07
19208;BME280;9737;59.466;18.036;2023-05-24T12:09:43;110865.09;;;38.62;33.88
19208;BME280;9737;59.466;18.036;2023-05-24T12:12:12;110840.97;;;38.61;33.52
19208;BME280;9737;59.466;18.036;2023-05-24T12:14:40;110651.09;;;38.23;33.66
19208;BME280;9737;59.466;18.036;2023-05-24T12:17:13;110695.19;;;38.35;33.59
19208;BME280;9737;59.466;18.036;2023-05-24T12:19:42;110555.94;;;38.10;33.73
19208;BME280;9737;59.466;18.036;2023-05-24T12:22:10;110274.38;;;37.52;33.22
19208;BME280;9737;59.466;18.036;2023-05-24T12:24:38;110459.06;;;37.97;33.32
19208;BME280;9737;59.466;18.036;2023-05-24T12:27:06;110100.50;;;37.20;32.62
19208;BME280;9737;59.466;18.036;2023-05-24T12:29:38;110226.13;;;37.53;32.74
19208;BME280;9737;59.466;18.036;2023-05-24T12:32:08;110286.78;;;37.67;32.70
19208;BME280;9737;59.466;18.036;2023-05-24T12:34:41;110155.25;;;37.42;32.45
19208;BME280;9737;59.466;18.036;2023-05-24T12:37:10;110004.56;;;37.10;32.23
19208;BME280;9737;59.466;18.036;2023-05-24T12:39:39;109498.25;;;36.04;31.97
19208;BME280;9737;59.466;18.036;2023-05-24T12:42:10;109433.13;;;35.92;31.85
19208;BME280;9737;59.466;18.036;2023-05-24T12:44:40;109443.94;;;35.98;31.84
19208;BME280;9737;59.466;18.036;2023-05-24T12:47:10;109312.06;;;35.70;31.51
19208;BME280;9737;59.466;18.036;2023-05-24T12:49:38;108955.47;;;34.93;31.66
19208;BME280;9737;59.466;18.036;2023-05-24T12:52:06;108910.66;;;34.85;31.14
19208;BME280;9737;59.466;18.036;2023-05-24T12:54:35;109123.44;;;35.34;31.15
19208;BME280;9737;59.466;18.036;2023-05-24T12:57:03;109262.16;;;35.70;31.08
19208;BME280;9737;59.466;18.036;2023-05-24T12:59:32;109252.09;;;35.68;30.99
19208;BME280;9737;59.466;18.036;2023-05-24T13:02:03;109692.66;;;36.63;30.55
19208;BME280;9737;59.466;18.036;2023-05-24T13:04:31;109585.16;;;36.46;30.86
19208;BME280;9737;59.466;18.036;2023-05-24T13:07:01;109660.22;;;36.64;30.39
19208;BME280;9737;59.466;18.036;2023-05-24T13:09:30;109618.09;;;36.54;30.41
19208;BME280;9737;59.466;18.036;2023-05-24T13:12:03;109742.63;;;36.85;30.24
19208;BME280;9737;59.466;18.036;2023-05-24T13:14:31;109907.63;;;37.23;29.96
19208;BME280;9737;59.466;18.036;2023-05-24T13:17:00;109476.72;;;36.29;29.97
19208;BME280;9737;59.466;18.036;2023-05-24T13:19:29;109483.06;;;36.33;29.82
19208;BME280;9737;59.466;18.036;2023-05-24T13:21:57;109591.94;;;36.59;29.78
19208;BME280;9737;59.466;18.036;2023-05-24T13:24:26;109459.94;;;36.32;29.72
19208;BME280;9737;59.466;18.036;2023-05-24T13:26:54;109546.88;;;36.53;30.04
19208;BME280;9737;59.466;18.036;2023-05-24T13:29:22;109576.31;;;36.57;29.57
19208;BME280;9737;59.466;18.036;2023-05-24T13:31:53;109249.16;;;35.91;29.43
19208;BME280;9737;59.466;18.036;2023-05-24T13:34:22;109185.09;;;35.77;29.44
19208;BME280;9737;59.466;18.036;2023-05-24T13:36:53;109271.94;;;35.98;29.52
19208;BME280;9737;59.466;18.036;2023-05-24T13:39:21;109223.38;;;35.89;28.99
19208;BME280;9737;59.466;18.036;2023-05-24T13:41:49;109528.06;;;36.59;29.05
19208;BME280;9737;59.466;18.036;2023-05-24T13:44:18;109452.03;;;36.43;29.16
19208;BME280;9737;59.466;18.036;2023-05-24T13:46:46;109525.13;;;36.63;29.11
19208;BME280;9737;59.466;18.036;2023-05-24T13:49:14;109209.59;;;35.88;28.80
19208;BME280;9737;59.466;18.036;2023-05-24T13:51:42;109017.25;;;35.51;28.72
19208;BME280;9737;59.466;18.036;2023-05-24T13:54:11;109064.69;;;35.64;28.56
19208;BME280;9737;59.466;18.036;2023-05-24T13:56:39;108939.56;;;35.35;28.56
19208;BME280;9737;59.466;18.036;2023-05-24T13:59:10;109398.31;;;36.44;28.49
19208;BME280;9737;59.466;18.036;2023-05-24T14:01:38;109642.91;;;36.98;28.20
19208;BME280;9737;59.466;18.036;2023-05-24T14:04:07;109471.53;;;36.60;28.12
19208;BME280;9737;59.466;18.036;2023-05-24T14:06:35;109415.63;;;36.49;28.02
19208;BME280;9737;59.466;18.036;2023-05-24T14:09:04;109147.50;;;35.90;28.03
19208;BME280;9737;59.466;18.036;2023-05-24T14:11:35;109190.44;;;36.00;27.83
19208;BME280;9737;59.466;18.036;2023-05-24T14:14:03;109345.03;;;36.36;27.78
19208;BME280;9737;59.466;18.036;2023-05-24T14:16:34;109322.06;;;36.33;27.70
19208;BME280;9737;59.466;18.036;2023-05-24T14:19:03;109054.91;;;35.74;27.82
19208;BME280;9737;59.466;18.036;2023-05-24T14:21:31;108758.16;;;35.06;27.49
19208;BME280;9737;59.466;18.036;2023-05-24T14:23:59;108447.00;;;34.40;27.51
19208;BME280;9737;59.466;18.036;2023-05-24T14:26:27;108357.66;;;34.21;27.38
19208;BME280;9737;59.466;18.036;2023-05-24T14:28:57;108409.50;;;34.34;27.53
19208;BME280;9737;59.466;18.036;2023-05-24T14:31:24;108578.88;;;34.75;27.52
19208;BME280;9737;59.466;18.036;2023-05-24T14:33:53;108280.97;;;34.07;27.26
19208;BME280;9737;59.466;18.036;2023-05-24T14:36:21;108260.97;;;34.02;27.02
19208;BME280;9737;59.466;18.036;2023-05-24T14:38:49;108392.81;;;34.36;26.82
19208;BME280;9737;59.466;18.036;2023-05-24T14:41:17;108274.38;;;34.09;26.88
19208;BME280;9737;59.466;18.036;2023-05-24T14:43:45;108309.84;;;34.18;26.96
19208;BME280;9737;59.466;18.036;2023-05-24T14:46:14;108026.84;;;33.53;26.99
19208;BME280;9737;59.466;18.036;2023-05-24T14:48:42;108029.56;;;33.55;26.41
19208;BME280;9737;59.466;18.036;2023-05-24T14:51:10;108030.28;;;33.59;26.75
19208;BME280;9737;59.466;18.036;2023-05-24T14:53:38;107943.09;;;33.37;26.34
19208;BME280;9737;59.466;18.036;2023-05-24T14:56:06;107692.41;;;32.79;26.66
19208;BME280;9737;59.466;18.036;2023-05-24T14:58:37;107592.63;;;32.55;26.34
19208;BME280;9737;59.466;18.036;2023-05-24T15:01:05;107373.13;;;32.05;26.61
19208;BME280;9737;59.466;18.036;2023-05-24T15:03:36;107490.16;;;32.31;26.35
19208;BME280;9737;59.466;18.036;2023-05-24T15:06:05;107791.25;;;33.04;26.07
19208;BME280;9737;59.466;18.036;2023-05-24T15:08:33;107670.34;;;32.79;26.49
19208;BME280;9737;59.466;18.036;2023-05-24T15:11:01;107662.13;;;32.78;26.32
19208;BME280;9737;59.466;18.036;2023-05-24T15:13:30;107863.59;;;33.26;26.38
19208;BME280;9737;59.466;18.036;2023-05-24T15:15:59;107741.03;;;32.98;26.26
19208;BME280;9737;59.466;18.036;2023-05-24T15:18:29;107618.44;;;32.70;26.28
19208;BME280;9737;59.466;18.036;2023-05-24T15:20:59;107612.13;;;32.68;25.93
19208;BME280;9737;59.466;18.036;2023-05-24T15:23:27;107857.88;;;33.30;26.06
19208;BME280;9737;59.466;18.036;2023-05-24T15:25:55;107955.91;;;33.54;26.14